Time;durP1;ratioP1;P1;durP2;ratioP2;P2;SDS_P1;SDS_P2;PMS_P1;PMS_P2;Temp;Humidity;BMP_temperature;BMP_pressure;BME280_temperature;BME280_humidity;BME280_pressure;Samples;Min_cycle;Max_cycle;Signal;HPM_P1;HPM_P2
2021/03/01 00:03:06;;;;;;;12.40;5.18;;;2.80;99.90;;;;;;10360977;28;20881;-62
2021/03/01 00:08:07;;;;;;;17.92;5.43;;;2.80;99.90;;;;;;10363150;28;20139;-63
2021/03/01 00:13:09;;;;;;;17.80;5.43;;;2.70;99.90;;;;;;10408108;28;20056;-63
2021/03/01 00:18:10;;;;;;;18.27;6.45;;;2.60;99.90;;;;;;10410983;28;20057;-63
2021/03/01 00:23:11;;;;;;;11.07;4.35;;;2.40;99.90;;;;;;10411614;28;20056;-62
2021/03/01 00:28:12;;;;;;;12.30;5.10;;;2.30;99.90;;;;;;10411192;28;20107;-63
2021/03/01 00:33:14;;;;;;;14.10;5.18;;;2.20;99.90;;;;;;10405128;28;20175;-62
2021/03/01 00:38:15;;;;;;;11.40;5.20;;;2.00;99.90;;;;;;10402074;28;20159;-63
2021/03/01 00:43:16;;;;;;;11.80;5.93;;;1.90;99.90;;;;;;10402260;28;20426;-62
2021/03/01 00:48:17;;;;;;;12.30;5.07;;;1.80;99.90;;;;;;10404871;28;20057;-63
2021/03/01 00:53:27;;;;;;;15.13;4.70;;;1.70;99.90;;;;;;10404865;28;20065;-62
2021/03/01 00:58:28;;;;;;;12.80;4.55;;;1.60;99.90;;;;;;10407018;28;20095;-62
2021/03/01 01:03:29;;;;;;;12.80;4.90;;;1.50;99.90;;;;;;10405182;28;20126;-62
2021/03/01 01:08:32;;;;;;;10.85;3.92;;;1.40;99.90;;;;;;10408233;28;20738;-62
2021/03/01 01:13:33;;;;;;;14.13;4.18;;;1.30;99.90;;;;;;10405630;28;20056;-62
2021/03/01 01:18:35;;;;;;;15.95;5.30;;;1.30;99.90;;;;;;10402960;28;20053;-62
2021/03/01 01:23:36;;;;;;;15.05;5.72;;;1.30;99.90;;;;;;10403698;28;20060;-62
2021/03/01 01:28:38;;;;;;;15.00;5.18;;;1.30;99.90;;;;;;10414108;28;20376;-63
2021/03/01 01:33:39;;;;;;;14.43;6.78;;;1.30;99.90;;;;;;10417761;28;20494;-62
2021/03/01 01:38:42;;;;;;;17.40;6.68;;;1.30;99.90;;;;;;10418870;28;20060;-62
2021/03/01 01:43:44;;;;;;;16.58;5.85;;;1.30;99.90;;;;;;10411030;28;20056;-62
2021/03/01 01:48:45;;;;;;;12.73;6.25;;;1.40;99.90;;;;;;10410267;28;20084;-62
2021/03/01 01:53:46;;;;;;;17.20;6.28;;;1.30;99.90;;;;;;10405200;28;20059;-63
2021/03/01 01:58:47;;;;;;;13.15;5.72;;;1.30;99.90;;;;;;10404405;28;20144;-62
2021/03/01 02:03:53;;;;;;;14.13;6.40;;;1.20;99.90;;;;;;10412144;28;20183;-65
2021/03/01 02:09:24;;;;;;;17.63;6.00;;;1.20;99.90;;;;;;10414809;28;20045;-65
2021/03/01 02:14:53;;;;;;;14.98;5.25;;;1.10;99.90;;;;;;10368628;28;20106;-65
2021/03/01 02:19:54;;;;;;;12.63;6.03;;;1.20;99.90;;;;;;10371708;28;20045;-65
2021/03/01 02:25:06;;;;;;;9.82;4.85;;;1.20;99.90;;;;;;10372635;28;20076;-65
2021/03/01 02:30:18;;;;;;;19.58;5.90;;;1.10;99.90;;;;;;10371570;28;20057;-65
2021/03/01 02:35:21;;;;;;;17.23;5.60;;;1.10;99.90;;;;;;10366321;28;20057;-65
2021/03/01 02:40:22;;;;;;;15.35;5.72;;;1.00;99.90;;;;;;10375071;28;20061;-65
2021/03/01 02:45:25;;;;;;;18.15;5.78;;;1.00;99.90;;;;;;10370395;28;20099;-65
2021/03/01 02:50:27;;;;;;;14.10;6.00;;;0.90;99.90;;;;;;10365866;28;20073;-65
2021/03/01 02:55:29;;;;;;;18.77;5.60;;;0.90;99.90;;;;;;10359983;28;20125;-65
2021/03/01 03:00:42;;;;;;;18.35;9.05;;;0.90;99.90;;;;;;10337872;28;20554;-65
2021/03/01 03:05:46;;;;;;;14.35;5.43;;;0.80;99.90;;;;;;10361670;28;20052;-65
2021/03/01 03:10:49;;;;;;;17.60;5.45;;;0.90;99.90;;;;;;10378546;28;20074;-65
2021/03/01 03:15:54;;;;;;;17.27;6.18;;;0.90;99.90;;;;;;10412268;28;20111;-65
2021/03/01 03:20:58;;;;;;;13.68;5.22;;;0.80;99.90;;;;;;10411791;28;20510;-65
2021/03/01 03:26:00;;;;;;;12.55;5.30;;;0.80;99.90;;;;;;10409162;28;20056;-65
2021/03/01 03:31:01;;;;;;;16.10;4.90;;;0.70;99.90;;;;;;10417202;28;20044;-65
2021/03/01 03:36:03;;;;;;;17.67;5.97;;;0.70;99.90;;;;;;10411691;28;20053;-65
2021/03/01 03:41:08;;;;;;;12.10;5.22;;;0.70;99.90;;;;;;10414890;28;20088;-65
2021/03/01 03:46:12;;;;;;;15.68;6.28;;;0.70;99.90;;;;;;10413439;28;20048;-65
2021/03/01 03:51:14;;;;;;;14.00;5.47;;;0.70;99.90;;;;;;10410914;28;20063;-65
2021/03/01 03:56:21;;;;;;;22.17;6.57;;;0.60;99.90;;;;;;10413382;28;20044;-65
2021/03/01 04:01:24;;;;;;;14.97;4.63;;;0.60;99.90;;;;;;10414513;28;20061;-65
2021/03/01 04:06:25;;;;;;;19.63;7.72;;;0.60;99.90;;;;;;10412849;28;20310;-65
2021/03/01 04:11:28;;;;;;;21.02;7.03;;;0.60;99.90;;;;;;10385509;28;20046;-65
2021/03/01 04:16:32;;;;;;;15.45;6.45;;;0.60;99.90;;;;;;10373936;28;20496;-65
2021/03/01 04:21:36;;;;;;;20.58;7.30;;;0.50;99.90;;;;;;10368001;28;20144;-65
2021/03/01 04:26:38;;;;;;;23.02;8.40;;;0.50;99.90;;;;;;10368671;28;20443;-65
2021/03/01 04:31:41;;;;;;;21.80;7.28;;;0.60;99.90;;;;;;10366230;28;20732;-65
2021/03/01 04:36:43;;;;;;;24.30;7.97;;;0.60;99.90;;;;;;10375444;28;20061;-65
2021/03/01 04:41:46;;;;;;;24.23;9.27;;;0.60;99.90;;;;;;10375169;28;20124;-65
2021/03/01 04:46:52;;;;;;;26.00;8.95;;;0.60;99.90;;;;;;10360224;28;20199;-65
2021/03/01 04:51:54;;;;;;;22.15;8.25;;;0.60;99.90;;;;;;10360107;28;20692;-65
2021/03/01 04:56:55;;;;;;;27.20;9.75;;;0.60;99.90;;;;;;10364629;28;20092;-64
2021/03/01 05:01:57;;;;;;;26.02;9.68;;;0.60;99.90;;;;;;10362937;28;20077;-64
2021/03/01 05:06:59;;;;;;;26.17;10.43;;;0.70;99.90;;;;;;10378867;28;20033;-64
2021/03/01 05:12:01;;;;;;;30.42;10.18;;;0.70;99.90;;;;;;10379044;28;20500;-65
2021/03/01 05:17:02;;;;;;;37.33;10.88;;;0.80;99.90;;;;;;10352374;28;20045;-64
2021/03/01 05:22:04;;;;;;;38.72;12.57;;;1.00;99.90;;;;;;10355627;28;20052;-65
2021/03/01 05:27:05;;;;;;;33.58;11.00;;;1.10;99.90;;;;;;10374239;28;20476;-65
2021/03/01 05:32:06;;;;;;;36.53;11.43;;;1.10;99.90;;;;;;10372978;28;20125;-65
2021/03/01 05:37:07;;;;;;;33.15;10.90;;;1.10;99.90;;;;;;10376289;28;20160;-65
2021/03/01 05:42:12;;;;;;;30.17;11.15;;;1.10;99.90;;;;;;10373217;28;20084;-65
2021/03/01 05:47:13;;;;;;;33.38;10.93;;;1.10;99.90;;;;;;10370719;28;20095;-65
2021/03/01 05:52:20;;;;;;;29.48;9.88;;;1.10;99.90;;;;;;10372788;28;20459;-65
2021/03/01 05:57:23;;;;;;;29.55;10.23;;;1.00;99.90;;;;;;10369196;28;20057;-65
2021/03/01 06:02:25;;;;;;;31.58;10.43;;;1.00;99.90;;;;;;10370716;28;20115;-65
2021/03/01 06:07:26;;;;;;;50.78;11.43;;;1.00;99.90;;;;;;10349395;28;20070;-65
2021/03/01 06:12:27;;;;;;;33.40;10.70;;;1.10;99.90;;;;;;10360536;28;20058;-63
2021/03/01 06:17:29;;;;;;;35.30;10.43;;;1.10;99.90;;;;;;10359361;28;20100;-63
2021/03/01 06:22:39;;;;;;;29.98;11.20;;;1.20;99.90;;;;;;10363967;28;20138;-63
2021/03/01 06:27:57;;;;;;;30.52;11.73;;;1.20;99.90;;;;;;10364477;28;20119;-63
2021/03/01 06:33:09;;;;;;;34.88;13.23;;;1.30;99.90;;;;;;10289042;28;20056;-64
2021/03/01 06:38:30;;;;;;;43.65;13.75;;;1.40;99.90;;;;;;10360899;28;20115;-63
2021/03/01 06:43:32;;;;;;;40.42;12.95;;;1.40;99.90;;;;;;10307156;28;20528;-63
2021/03/01 06:48:34;;;;;;;24.42;12.20;;;1.50;99.90;;;;;;10354186;28;20049;-63
2021/03/01 06:53:36;;;;;;;33.72;11.75;;;1.60;99.90;;;;;;10359718;28;20075;-63
2021/03/01 06:58:41;;;;;;;33.65;12.73;;;1.70;99.90;;;;;;10352993;28;21157;-62
2021/03/01 07:03:45;;;;;;;31.27;11.43;;;1.80;99.90;;;;;;10357810;28;20080;-63
2021/03/01 07:08:49;;;;;;;32.58;11.30;;;1.80;99.90;;;;;;10311152;28;20057;-64
2021/03/01 07:13:58;;;;;;;30.45;10.30;;;1.90;99.90;;;;;;10357832;28;20091;-63
2021/03/01 07:18:59;;;;;;;27.15;11.95;;;1.90;99.90;;;;;;10358045;28;20085;-64
2021/03/01 07:24:02;;;;;;;21.70;10.57;;;2.00;99.90;;;;;;10360140;28;20377;-64
2021/03/01 07:29:15;;;;;;;21.58;8.80;;;2.10;99.90;;;;;;10364798;28;20483;-64
2021/03/01 07:34:17;;;;;;;20.80;9.00;;;2.10;99.90;;;;;;10364489;28;20064;-64
2021/03/01 07:39:19;;;;;;;23.30;9.77;;;2.10;99.90;;;;;;10362627;28;20188;-65
2021/03/01 07:44:27;;;;;;;27.50;10.88;;;2.20;99.90;;;;;;10361711;28;20060;-64
2021/03/01 07:49:35;;;;;;;;;;;2.30;99.90;;;;;;10361526;28;20050;-65
2021/03/01 07:54:48;;;;;;;;;;;2.50;99.90;;;;;;10357718;28;19967;-64
2021/03/01 07:59:50;;;;;;;20.15;9.38;;;2.60;99.90;;;;;;10362612;28;19972;-64
2021/03/01 08:04:56;;;;;;;23.35;9.95;;;2.70;99.90;;;;;;10354386;28;20050;-65
2021/03/01 08:09:57;;;;;;;21.45;10.43;;;2.90;99.90;;;;;;10358452;28;20068;-65
2021/03/01 08:15:03;;;;;;;21.63;9.55;;;3.00;99.90;;;;;;10359009;28;20062;-65
2021/03/01 08:20:16;;;;;;;27.90;10.82;;;3.00;99.90;;;;;;10350384;28;20046;-64
2021/03/01 08:25:37;;;;;;;23.95;10.85;;;3.00;99.90;;;;;;10341438;28;20111;-63
2021/03/01 08:30:39;;;;;;;22.02;10.50;;;3.10;99.90;;;;;;10351098;28;20046;-63
2021/03/01 08:35:43;;;;;;;21.08;10.82;;;3.30;99.90;;;;;;10352459;28;20068;-63
2021/03/01 08:40:52;;;;;;;19.25;9.43;;;3.40;99.90;;;;;;10354649;28;20058;-63
2021/03/01 08:45:54;;;;;;;18.60;9.48;;;3.40;99.90;;;;;;10352845;28;20108;-64
2021/03/01 08:50:56;;;;;;;20.60;9.60;;;3.40;99.90;;;;;;10352973;28;20037;-63
2021/03/01 08:55:59;;;;;;;17.52;9.45;;;3.50;99.90;;;;;;10357304;28;20582;-64
2021/03/01 09:01:06;;;;;;;16.13;7.97;;;3.60;99.90;;;;;;10357787;28;20033;-64
2021/03/01 09:06:10;;;;;;;23.20;9.88;;;3.60;99.90;;;;;;10357096;28;20115;-62
2021/03/01 09:11:16;;;;;;;15.98;7.90;;;3.70;99.90;;;;;;10381683;28;20472;-63
2021/03/01 09:16:23;;;;;;;16.67;7.85;;;3.90;99.90;;;;;;10396256;28;20049;-63
2021/03/01 09:21:25;;;;;;;16.73;8.02;;;4.10;99.90;;;;;;10398253;28;20060;-63
2021/03/01 09:26:38;;;;;;;13.32;6.85;;;4.20;99.90;;;;;;10357295;28;20554;-63
2021/03/01 09:31:40;;;;;;;12.98;7.15;;;4.50;99.90;;;;;;10373179;28;20403;-63
2021/03/01 09:36:48;;;;;;;13.07;5.82;;;4.70;99.90;;;;;;10378950;28;20419;-63
2021/03/01 09:41:50;;;;;;;15.20;7.73;;;4.80;99.90;;;;;;10346671;28;20056;-63
2021/03/01 09:46:56;;;;;;;11.35;6.15;;;4.90;99.90;;;;;;10372803;28;20705;-63
2021/03/01 09:51:58;;;;;;;9.63;5.70;;;5.00;99.90;;;;;;10404085;28;20053;-63
2021/03/01 09:57:09;;;;;;;11.73;5.45;;;5.20;99.90;;;;;;10400413;28;20045;-63
2021/03/01 10:02:28;;;;;;;9.18;5.47;;;5.30;99.90;;;;;;10384883;28;20368;-63
2021/03/01 10:07:29;;;;;;;8.40;4.57;;;5.50;99.90;;;;;;10307574;28;20064;-64
2021/03/01 10:12:30;;;;;;;9.43;4.43;;;5.60;99.90;;;;;;10379540;28;20041;-63
2021/03/01 10:17:33;;;;;;;8.23;4.20;;;5.60;99.90;;;;;;10354868;28;20045;-63
2021/03/01 10:23:01;;;;;;;8.40;4.65;;;5.80;99.90;;;;;;10355208;28;20052;-63
2021/03/01 10:28:07;;;;;;;8.88;4.70;;;5.90;99.90;;;;;;10323432;28;20105;-63
2021/03/01 10:33:09;;;;;;;11.43;5.63;;;6.20;99.90;;;;;;10374787;28;20084;-64
2021/03/01 10:38:10;;;;;;;7.32;3.83;;;6.40;99.90;;;;;;10371741;28;20733;-64
2021/03/01 10:43:12;;;;;;;9.45;4.30;;;6.50;99.90;;;;;;10368975;28;20554;-64
2021/03/01 10:48:13;;;;;;;7.82;4.88;;;6.60;99.90;;;;;;10356007;28;20061;-63
2021/03/01 10:53:15;;;;;;;9.07;4.35;;;6.80;99.90;;;;;;10372735;28;20381;-64
2021/03/01 10:58:17;;;;;;;8.32;4.95;;;7.10;99.90;;;;;;10369090;28;20054;-63
2021/03/01 11:03:18;;;;;;;6.78;3.75;;;7.20;99.90;;;;;;10371068;28;20054;-64
2021/03/01 11:08:20;;;;;;;9.30;4.45;;;7.40;99.90;;;;;;10364237;28;20503;-63
2021/03/01 11:13:21;;;;;;;9.05;4.90;;;7.60;99.90;;;;;;10402670;28;20102;-63
2021/03/01 11:18:23;;;;;;;12.05;5.88;;;7.80;99.90;;;;;;10379514;28;20056;-63
2021/03/01 11:23:28;;;;;;;9.20;4.68;;;8.00;99.90;;;;;;10384771;28;20154;-63
2021/03/01 11:28:29;;;;;;;16.85;6.75;;;8.10;99.90;;;;;;10395049;28;20118;-63
2021/03/01 11:33:30;;;;;;;11.48;4.93;;;8.30;97.80;;;;;;10408506;28;20424;-63
2021/03/01 11:38:32;;;;;;;10.30;5.30;;;8.50;97.30;;;;;;10405897;28;20049;-63
2021/03/01 11:43:34;;;;;;;10.38;4.95;;;8.70;97.20;;;;;;10401625;28;20067;-63
2021/03/01 11:48:35;;;;;;;10.88;4.93;;;8.90;96.20;;;;;;10396600;28;20126;-63
2021/03/01 11:53:38;;;;;;;11.65;5.13;;;9.10;95.20;;;;;;10385616;28;20064;-63
2021/03/01 11:58:40;;;;;;;7.93;4.22;;;9.40;93.90;;;;;;10407540;28;20147;-63
2021/03/01 12:03:41;;;;;;;7.85;4.88;;;10.30;91.30;;;;;;10411240;28;20529;-64
2021/03/01 12:08:43;;;;;;;9.82;5.38;;;11.20;86.30;;;;;;10401279;28;20059;-64
2021/03/01 12:13:44;;;;;;;8.48;5.00;;;12.50;78.80;;;;;;10340793;28;20060;-65
2021/03/01 12:18:45;;;;;;;6.88;4.45;;;13.50;73.80;;;;;;10364557;28;20568;-64
2021/03/01 12:23:47;;;;;;;8.93;5.90;;;14.10;68.40;;;;;;10361539;28;20750;-65
2021/03/01 12:28:48;;;;;;;7.07;4.60;;;13.90;67.00;;;;;;10355440;28;20590;-65
2021/03/01 12:33:49;;;;;;;6.97;4.30;;;13.40;68.90;;;;;;10363138;28;20516;-65
2021/03/01 12:38:50;;;;;;;7.90;4.68;;;12.80;69.70;;;;;;10362405;28;20447;-65
2021/03/01 12:43:52;;;;;;;8.45;4.55;;;12.50;71.80;;;;;;10363728;28;20041;-65
2021/03/01 12:48:53;;;;;;;7.82;4.28;;;12.30;71.80;;;;;;10339833;28;20061;-65
2021/03/01 12:53:56;;;;;;;8.82;3.88;;;12.40;72.60;;;;;;10361252;28;20033;-65
2021/03/01 12:58:57;;;;;;;6.22;4.18;;;13.00;71.20;;;;;;10343384;28;20065;-65
2021/03/01 13:03:58;;;;;;;6.63;3.97;;;14.10;67.30;;;;;;10362070;28;20061;-65
2021/03/01 13:09:00;;;;;;;6.28;4.28;;;14.80;64.70;;;;;;10362848;28;20057;-65
2021/03/01 13:14:02;;;;;;;8.60;6.90;;;16.00;61.90;;;;;;10354133;28;20052;-65
2021/03/01 13:19:04;;;;;;;5.05;4.13;;;16.70;59.20;;;;;;10347946;28;20058;-65
2021/03/01 13:24:06;;;;;;;8.43;4.80;;;17.30;57.30;;;;;;10352479;28;20077;-65
2021/03/01 13:29:07;;;;;;;6.88;5.25;;;17.70;54.60;;;;;;10351928;28;20050;-66
2021/03/01 13:34:09;;;;;;;6.07;4.35;;;18.50;54.40;;;;;;10347529;28;20053;-66
2021/03/01 13:39:10;;;;;;;9.15;4.15;;;18.60;53.40;;;;;;10361198;28;20192;-66
2021/03/01 13:44:11;;;;;;;7.35;4.35;;;19.40;51.70;;;;;;10369451;28;20053;-66
2021/03/01 13:49:16;;;;;;;5.15;3.55;;;19.50;50.00;;;;;;10364218;28;20468;-66
2021/03/01 13:54:17;;;;;;;3.75;3.03;;;19.40;50.50;;;;;;10369363;28;20061;-65
2021/03/01 13:59:19;;;;;;;5.13;3.53;;;20.00;50.40;;;;;;10367784;28;20065;-65
2021/03/01 14:04:20;;;;;;;5.57;4.13;;;19.40;50.10;;;;;;10366838;28;20061;-65
2021/03/01 14:09:22;;;;;;;5.65;3.25;;;19.60;51.20;;;;;;10356599;28;20052;-64
2021/03/01 14:14:23;;;;;;;4.65;3.17;;;19.50;49.90;;;;;;10362497;28;20072;-64
2021/03/01 14:19:25;;;;;;;8.07;3.80;;;18.90;51.80;;;;;;10356082;28;20049;-63
2021/03/01 14:24:26;;;;;;;6.90;3.78;;;18.80;51.60;;;;;;10365118;28;20053;-66
2021/03/01 14:29:27;;;;;;;4.85;3.85;;;18.40;52.80;;;;;;10361729;28;20049;-64
2021/03/01 14:34:28;;;;;;;8.07;4.35;;;17.50;54.20;;;;;;10356871;28;20050;-65
2021/03/01 14:39:30;;;;;;;6.53;4.50;;;17.80;54.70;;;;;;10360034;28;20144;-62
2021/03/01 14:44:31;;;;;;;7.10;3.92;;;17.50;55.60;;;;;;10358868;28;20058;-64
2021/03/01 14:49:32;;;;;;;6.15;3.88;;;16.80;58.80;;;;;;10359050;28;20049;-63
2021/03/01 14:54:33;;;;;;;6.68;3.63;;;16.40;58.80;;;;;;10359175;28;20066;-63
2021/03/01 14:59:35;;;;;;;6.65;3.95;;;16.00;59.60;;;;;;10358030;28;20520;-63
2021/03/01 15:04:37;;;;;;;7.20;3.78;;;16.00;61.60;;;;;;10353796;28;20117;-62
2021/03/01 15:09:40;;;;;;;7.38;3.72;;;15.70;62.10;;;;;;10354444;28;20487;-63
2021/03/01 15:14:41;;;;;;;5.82;3.97;;;15.80;60.90;;;;;;10367553;28;20077;-65
2021/03/01 15:19:42;;;;;;;4.65;3.65;;;15.40;61.40;;;;;;10369417;28;20521;-64
2021/03/01 15:24:44;;;;;;;7.43;3.95;;;15.20;62.30;;;;;;10365088;28;20064;-64
2021/03/01 15:29:46;;;;;;;5.18;3.60;;;15.10;62.40;;;;;;10373616;28;20095;-63
2021/03/01 15:34:47;;;;;;;6.00;3.65;;;15.00;62.40;;;;;;10381440;28;20056;-64
2021/03/01 15:39:48;;;;;;;6.05;3.58;;;14.90;63.50;;;;;;10365262;28;20065;-67
2021/03/01 15:44:50;;;;;;;6.10;3.20;;;14.80;63.20;;;;;;10361620;28;20068;-65
2021/03/01 15:49:51;;;;;;;5.63;3.40;;;14.70;63.90;;;;;;10342862;28;20065;-65
2021/03/01 15:54:53;;;;;;;6.53;3.20;;;14.50;64.30;;;;;;10366391;28;20673;-65
2021/03/01 15:59:54;;;;;;;5.03;3.17;;;14.20;65.30;;;;;;10362862;28;20130;-65
2021/03/01 16:04:55;;;;;;;5.55;3.35;;;14.00;66.90;;;;;;10361561;28;20111;-65
2021/03/01 16:09:56;;;;;;;5.97;2.20;;;13.80;69.20;;;;;;10346927;28;20118;-65
2021/03/01 16:14:58;;;;;;;5.15;2.65;;;13.80;67.60;;;;;;10361091;28;20416;-66
2021/03/01 16:20:09;;;;;;;6.05;2.95;;;13.90;66.70;;;;;;10359417;28;20412;-66
2021/03/01 16:25:12;;;;;;;5.05;2.78;;;13.60;67.60;;;;;;10359605;28;20463;-66
2021/03/01 16:30:14;;;;;;;8.18;3.45;;;13.30;69.50;;;;;;10357300;28;20061;-66
2021/03/01 16:35:16;;;;;;;6.30;3.17;;;12.70;71.20;;;;;;10338889;28;20447;-66
2021/03/01 16:40:17;;;;;;;5.63;2.97;;;12.30;72.40;;;;;;10352643;28;20053;-66
2021/03/01 16:45:19;;;;;;;7.63;3.08;;;11.90;74.20;;;;;;10354617;28;20076;-66
2021/03/01 16:50:22;;;;;;;11.95;3.95;;;11.50;76.80;;;;;;10334942;28;20049;-66
2021/03/01 16:55:24;;;;;;;6.60;3.55;;;11.00;80.10;;;;;;10359734;28;20888;-66
2021/03/01 17:00:25;;;;;;;6.00;3.78;;;10.70;81.80;;;;;;10363686;28;20073;-66
2021/03/01 17:05:26;;;;;;;9.35;4.03;;;10.40;84.00;;;;;;10364774;28;20050;-66
2021/03/01 17:10:32;;;;;;;10.30;3.67;;;10.10;85.30;;;;;;10371126;28;20054;-67
2021/03/01 17:15:33;;;;;;;7.97;3.63;;;9.90;86.70;;;;;;10404834;28;20604;-65
2021/03/01 17:20:40;;;;;;;7.13;4.18;;;9.70;87.90;;;;;;10402479;28;20447;-65
2021/03/01 17:25:44;;;;;;;8.98;4.43;;;9.40;89.90;;;;;;10397297;28;20049;-66
2021/03/01 17:30:48;;;;;;;8.05;3.70;;;9.30;90.60;;;;;;10410750;28;20045;-65
2021/03/01 17:35:49;;;;;;;5.00;3.45;;;9.20;91.00;;;;;;10400936;28;20048;-64
2021/03/01 17:40:51;;;;;;;6.72;3.28;;;9.10;91.50;;;;;;10399702;28;20251;-64
2021/03/01 17:45:52;;;;;;;6.43;3.75;;;8.90;92.20;;;;;;10404916;28;20056;-63
2021/03/01 17:51:11;;;;;;;7.03;3.78;;;8.90;92.90;;;;;;10403744;28;20393;-64
2021/03/01 17:56:23;;;;;;;5.72;3.63;;;8.70;93.70;;;;;;10397891;28;20060;-63
2021/03/01 18:01:27;;;;;;;9.23;3.72;;;8.70;94.80;;;;;;10397397;28;20045;-63
2021/03/01 18:06:37;;;;;;;7.55;3.70;;;8.60;95.70;;;;;;10400478;28;20047;-66
2021/03/01 18:11:44;;;;;;;5.25;3.28;;;8.60;96.00;;;;;;10395640;28;20048;-67
2021/03/01 18:16:47;;;;;;;4.32;3.08;;;8.60;96.60;;;;;;10403674;28;20058;-67
2021/03/01 18:22:00;;;;;;;7.28;3.92;;;8.40;97.50;;;;;;10312566;28;20049;-66
2021/03/01 18:27:03;;;;;;;10.82;5.40;;;8.40;98.50;;;;;;10403877;28;20057;-67
2021/03/01 18:32:13;;;;;;;7.05;4.20;;;8.20;99.30;;;;;;10393883;28;20061;-67
2021/03/01 18:37:19;;;;;;;15.57;7.72;;;8.00;99.90;;;;;;10401216;28;20057;-67
2021/03/01 18:42:23;;;;;;;7.07;4.20;;;7.80;99.90;;;;;;10397804;28;20131;-68
2021/03/01 18:47:28;;;;;;;8.30;5.13;;;7.60;99.90;;;;;;10393102;28;20634;-67
2021/03/01 18:52:29;;;;;;;11.98;6.00;;;7.50;99.90;;;;;;10396690;28;20053;-67
2021/03/01 18:57:30;;;;;;;9.40;5.55;;;7.40;99.90;;;;;;10398704;28;20492;-67
2021/03/01 19:02:33;;;;;;;10.73;6.28;;;7.30;99.90;;;;;;10395622;28;20049;-67
2021/03/01 19:07:35;;;;;;;10.70;7.65;;;7.20;99.90;;;;;;10392965;28;20845;-67
2021/03/01 19:12:36;;;;;;;10.50;6.53;;;7.10;99.90;;;;;;10360055;28;20614;-67
2021/03/01 19:17:38;;;;;;;8.85;5.43;;;6.90;99.90;;;;;;10356835;28;20061;-67
2021/03/01 19:22:40;;;;;;;9.05;5.68;;;6.80;99.90;;;;;;10350774;28;20469;-67
2021/03/01 19:27:41;;;;;;;9.10;5.65;;;6.70;99.90;;;;;;10369750;28;21662;-65
2021/03/01 19:32:43;;;;;;;10.88;6.22;;;6.60;99.90;;;;;;10347013;28;20057;-65
2021/03/01 19:37:44;;;;;;;12.10;5.60;;;6.50;99.90;;;;;;10364860;28;20137;-65
2021/03/01 19:42:47;;;;;;;9.32;5.45;;;6.30;99.90;;;;;;10363689;28;20049;-65
2021/03/01 19:47:48;;;;;;;15.15;7.80;;;6.20;99.90;;;;;;10353375;28;20611;-65
2021/03/01 19:52:50;;;;;;;11.55;6.20;;;6.20;99.90;;;;;;10369861;28;20060;-65
2021/03/01 19:57:54;;;;;;;16.83;7.20;;;6.10;99.90;;;;;;10367285;28;20057;-65
2021/03/01 20:02:55;;;;;;;19.63;8.57;;;6.10;99.90;;;;;;10365879;28;20057;-64
2021/03/01 20:07:56;;;;;;;12.60;6.75;;;6.00;99.90;;;;;;10365115;28;20511;-67
2021/03/01 20:13:00;;;;;;;12.68;6.55;;;5.90;99.90;;;;;;10366036;28;20061;-65
2021/03/01 20:18:01;;;;;;;12.98;6.70;;;5.80;99.90;;;;;;10363600;28;20054;-65
2021/03/01 20:23:03;;;;;;;13.30;6.80;;;5.70;99.90;;;;;;10340461;28;20045;-65
2021/03/01 20:28:04;;;;;;;14.68;8.32;;;5.60;99.90;;;;;;10359876;28;20116;-65
2021/03/01 20:33:05;;;;;;;13.27;7.35;;;5.50;99.90;;;;;;10358419;28;20162;-67
2021/03/01 20:38:07;;;;;;;14.75;8.25;;;5.50;99.90;;;;;;10356730;28;20049;-67
2021/03/01 20:43:08;;;;;;;12.15;7.28;;;5.60;99.90;;;;;;10362817;28;20097;-66
2021/03/01 20:48:10;;;;;;;16.65;7.68;;;5.50;99.90;;;;;;10358386;28;20116;-66
2021/03/01 20:53:11;;;;;;;13.55;7.30;;;5.40;99.90;;;;;;10360393;28;20965;-66
2021/03/01 20:58:13;;;;;;;13.43;7.43;;;5.40;99.90;;;;;;10364247;28;20061;-65
2021/03/01 21:03:22;;;;;;;14.95;6.38;;;5.30;99.90;;;;;;10350302;28;20132;-66
2021/03/01 21:08:25;;;;;;;13.23;7.53;;;5.30;99.90;;;;;;10353721;28;20153;-66
2021/03/01 21:13:26;;;;;;;12.82;6.65;;;5.20;99.90;;;;;;10381566;28;20065;-67
2021/03/01 21:18:28;;;;;;;11.57;6.55;;;5.30;99.90;;;;;;10393923;28;20605;-65
2021/03/01 21:23:39;;;;;;;12.10;6.95;;;5.20;99.90;;;;;;10394274;28;20061;-66
2021/03/01 21:28:41;;;;;;;14.95;8.63;;;5.10;99.90;;;;;;10416691;28;20053;-66
2021/03/01 21:33:48;;;;;;;16.70;8.88;;;5.00;99.90;;;;;;10400108;28;20053;-66
2021/03/01 21:38:51;;;;;;;14.27;7.25;;;4.90;99.90;;;;;;10395535;28;20130;-65
2021/03/01 21:43:52;;;;;;;14.23;7.47;;;4.80;99.90;;;;;;10404192;28;20456;-66
2021/03/01 21:48:54;;;;;;;14.38;9.02;;;4.80;99.90;;;;;;10406535;28;20049;-66
2021/03/01 21:53:57;;;;;;;13.68;7.30;;;4.70;99.90;;;;;;10391594;28;20064;-67
2021/03/01 21:59:00;;;;;;;16.00;7.30;;;4.70;99.90;;;;;;10410315;28;20550;-67
2021/03/01 22:04:04;;;;;;;11.90;7.25;;;4.70;99.90;;;;;;10404972;28;20049;-67
2021/03/01 22:09:07;;;;;;;15.43;7.38;;;4.60;99.90;;;;;;10403177;28;20132;-67
2021/03/01 22:14:08;;;;;;;22.67;9.88;;;4.60;99.90;;;;;;10365498;28;23507;-67
2021/03/01 22:19:10;;;;;;;16.27;7.07;;;4.50;99.90;;;;;;10397595;28;20045;-67
2021/03/01 22:24:12;;;;;;;15.30;6.70;;;4.40;99.90;;;;;;10376645;28;20061;-67
2021/03/01 22:29:18;;;;;;;12.85;6.63;;;4.40;99.90;;;;;;10377178;28;20082;-67
2021/03/01 22:34:25;;;;;;;15.23;7.75;;;4.30;99.90;;;;;;10371669;28;20053;-67
2021/03/01 22:39:32;;;;;;;14.80;6.93;;;4.10;99.90;;;;;;10378132;28;20510;-67
2021/03/01 22:44:35;;;;;;;17.47;8.07;;;4.00;99.90;;;;;;10376962;28;20472;-66
2021/03/01 22:49:40;;;;;;;14.80;7.78;;;3.90;99.90;;;;;;10380062;28;20038;-66
2021/03/01 22:54:46;;;;;;;15.85;8.25;;;3.80;99.90;;;;;;10376375;28;20630;-67
2021/03/01 22:59:47;;;;;;;15.15;6.68;;;3.70;99.90;;;;;;10375998;28;20135;-67
2021/03/01 23:04:48;;;;;;;14.98;6.45;;;3.60;99.90;;;;;;10367513;28;20046;-66
2021/03/01 23:09:51;;;;;;;17.15;6.85;;;3.60;99.90;;;;;;10372605;28;20151;-66
2021/03/01 23:14:52;;;;;;;16.65;7.90;;;3.50;99.90;;;;;;10363032;28;20049;-66
2021/03/01 23:19:54;;;;;;;16.27;6.80;;;3.40;99.90;;;;;;10366255;28;20077;-66
2021/03/01 23:24:55;;;;;;;14.88;6.93;;;3.40;99.90;;;;;;10370074;28;20053;-66
2021/03/01 23:29:56;;;;;;;18.23;7.90;;;3.30;99.90;;;;;;10368415;28;20045;-66
2021/03/01 23:34:58;;;;;;;18.48;7.85;;;3.30;99.90;;;;;;10361159;28;20080;-66
2021/03/01 23:40:01;;;;;;;15.23;7.82;;;3.40;99.90;;;;;;10357888;28;20050;-66
2021/03/01 23:45:04;;;;;;;18.35;8.27;;;3.30;99.90;;;;;;10362720;28;20050;-66
2021/03/01 23:50:11;;;;;;;18.67;8.10;;;3.30;99.90;;;;;;10361580;28;20065;-66
2021/03/01 23:55:14;;;;;;;17.00;8.50;;;3.20;99.90;;;;;;10356520;28;20067;-66
